Terminal Aerodrome Forecast
Issued by NWS Pocatello, ID

Home | Current Version | Previous Version | Text Only | Print | Product List | Glossary On
Versions: 1 2 3 4 5 6 7 8 9 10 11 12 13 14 15 16
000
FTUS45 KPIH 221100
TAFIDA
TAF
KIDA 221120Z 2212/2312 20006KT P6SM SCT250
     FM221800 22010KT P6SM SCT050 BKN200
     FM230100 VRB05KT P6SM BKN120=

USA.gov is the U.S. government's official web portal to all federal, state and local government web resources and services.